Time;durP1;ratioP1;P1;durP2;ratioP2;P2;SDS_P1;SDS_P2;PMS_P1;PMS_P2;Temp;Humidity;BMP_temperature;BMP_pressure;BME280_temperature;BME280_humidity;BME280_pressure;Samples;Min_cycle;Max_cycle;Signal;HPM_P1;HPM_P2
2023/07/25 00:00:24;;;;;;;5.90;2.47;;;14.50;99.90;;;;;;6229863;23;20054;-77
2023/07/25 00:02:50;;;;;;;3.70;2.25;;;14.40;99.90;;;;;;6229356;22;20014;-77
2023/07/25 00:05:16;;;;;;;3.83;2.53;;;14.50;99.90;;;;;;6229923;23;20052;-77
2023/07/25 00:07:41;;;;;;;3.30;2.60;;;14.50;99.90;;;;;;6232434;23;20004;-77
2023/07/25 00:10:07;;;;;;;5.15;2.65;;;14.60;99.90;;;;;;6233848;23;20410;-77
2023/07/25 00:12:35;;;;;;;4.63;2.83;;;14.60;99.90;;;;;;6232717;23;20015;-77
2023/07/25 00:15:01;;;;;;;4.72;2.65;;;14.60;99.90;;;;;;6234457;23;20012;-76
2023/07/25 00:17:27;;;;;;;4.47;3.00;;;14.70;99.90;;;;;;6233810;23;20471;-78
2023/07/25 00:19:53;;;;;;;4.43;2.58;;;14.60;99.90;;;;;;6232217;23;20019;-77
2023/07/25 00:22:18;;;;;;;3.88;2.65;;;14.70;99.90;;;;;;6234130;23;20000;-77
2023/07/25 00:24:44;;;;;;;5.18;2.80;;;14.70;99.90;;;;;;6233464;23;20028;-77
2023/07/25 00:27:09;;;;;;;4.53;2.60;;;14.70;99.90;;;;;;6234387;23;20332;-77
2023/07/25 00:29:35;;;;;;;5.40;3.15;;;14.70;99.90;;;;;;6233206;23;20004;-77
2023/07/25 00:32:01;;;;;;;4.25;2.95;;;14.80;99.90;;;;;;6233130;23;20012;-77
2023/07/25 00:34:26;;;;;;;4.40;2.85;;;14.70;99.90;;;;;;6233152;23;20004;-78
2023/07/25 00:36:52;;;;;;;4.43;2.70;;;14.80;99.90;;;;;;6234114;23;20091;-77
2023/07/25 00:39:17;;;;;;;4.25;2.75;;;14.70;99.90;;;;;;6206915;23;20004;-77
2023/07/25 00:41:43;;;;;;;6.30;3.28;;;14.70;99.90;;;;;;6232104;23;20007;-77
2023/07/25 00:44:08;;;;;;;3.30;2.88;;;14.70;99.90;;;;;;6232739;23;20301;-77
2023/07/25 00:46:34;;;;;;;5.50;3.25;;;14.70;99.90;;;;;;6232913;23;20012;-77
2023/07/25 00:49:00;;;;;;;5.20;3.25;;;14.70;99.90;;;;;;6234699;23;20350;-77
2023/07/25 00:51:27;;;;;;;6.20;3.30;;;14.70;99.90;;;;;;6234179;23;20080;-77
2023/07/25 00:53:54;;;;;;;5.25;3.40;;;14.70;99.90;;;;;;6234455;23;20012;-77
2023/07/25 00:56:20;;;;;;;4.82;3.10;;;14.60;99.90;;;;;;6232938;23;20070;-77
2023/07/25 00:58:47;;;;;;;8.60;3.30;;;14.50;99.90;;;;;;6233368;23;20000;-77
2023/07/25 01:01:12;;;;;;;5.03;3.20;;;14.50;99.90;;;;;;6206551;23;20004;-77
2023/07/25 01:03:39;;;;;;;5.22;3.38;;;14.40;99.90;;;;;;6232289;23;20023;-77
2023/07/25 01:06:10;;;;;;;4.15;3.35;;;14.40;99.90;;;;;;6233486;23;20020;-77
2023/07/25 01:08:49;;;;;;;5.32;3.92;;;14.40;99.90;;;;;;6233899;23;20097;-77
2023/07/25 01:11:15;;;;;;;6.18;3.35;;;14.50;99.90;;;;;;6206675;23;20012;-77
2023/07/25 01:13:41;;;;;;;5.38;3.58;;;14.50;99.90;;;;;;6205549;23;20356;-77
2023/07/25 01:16:12;;;;;;;5.45;3.22;;;14.40;99.90;;;;;;6233727;23;20713;-77
2023/07/25 01:18:39;;;;;;;5.72;3.28;;;14.40;99.90;;;;;;6232145;23;20519;-76
2023/07/25 01:21:05;;;;;;;4.47;2.58;;;14.40;99.90;;;;;;6233319;23;20046;-77
2023/07/25 01:23:32;;;;;;;4.72;2.55;;;14.30;99.90;;;;;;6232511;23;20094;-77
2023/07/25 01:25:57;;;;;;;6.65;2.65;;;14.30;99.90;;;;;;6205795;23;20031;-77
2023/07/25 01:28:24;;;;;;;3.75;2.40;;;14.20;99.90;;;;;;6232661;23;20004;-77
2023/07/25 01:30:49;;;;;;;3.75;2.60;;;14.20;99.90;;;;;;6232240;23;20008;-77
2023/07/25 01:33:15;;;;;;;4.55;2.17;;;14.10;99.90;;;;;;6205404;23;20010;-77
2023/07/25 01:35:40;;;;;;;3.05;2.10;;;14.00;99.90;;;;;;6231891;23;20439;-77
2023/07/25 01:38:06;;;;;;;5.53;2.22;;;14.00;99.90;;;;;;6234104;23;20009;-77
2023/07/25 01:40:31;;;;;;;4.10;2.10;;;14.00;99.90;;;;;;6232992;23;20586;-77
2023/07/25 01:42:57;;;;;;;4.38;2.03;;;13.90;99.90;;;;;;6206917;23;20012;-77
2023/07/25 01:45:22;;;;;;;4.55;2.08;;;13.80;99.90;;;;;;6233554;23;20020;-77
2023/07/25 01:47:48;;;;;;;4.50;2.55;;;13.80;99.90;;;;;;6233566;23;20005;-77
2023/07/25 01:50:14;;;;;;;5.85;2.42;;;13.70;99.90;;;;;;6232600;23;20008;-77
2023/07/25 01:52:39;;;;;;;4.60;2.20;;;13.70;99.90;;;;;;6232558;23;20130;-77
2023/07/25 01:55:05;;;;;;;5.85;2.55;;;13.70;99.90;;;;;;6206576;23;20020;-77
2023/07/25 01:57:31;;;;;;;5.90;2.38;;;13.60;99.90;;;;;;6232429;23;20004;-77
2023/07/25 02:00:00;;;;;;;4.70;2.58;;;13.60;99.90;;;;;;6233830;23;20031;-78
2023/07/25 02:02:26;;;;;;;3.83;2.25;;;13.60;99.90;;;;;;6232732;23;20043;-77
2023/07/25 02:04:52;;;;;;;7.07;2.35;;;13.50;99.90;;;;;;6232889;23;20019;-77
2023/07/25 02:07:17;;;;;;;4.57;2.30;;;13.50;99.90;;;;;;6232537;23;20019;-78
2023/07/25 02:09:43;;;;;;;3.40;2.13;;;13.50;99.90;;;;;;6232844;23;20024;-77
2023/07/25 02:12:09;;;;;;;5.68;2.42;;;13.40;99.90;;;;;;6204947;23;20022;-77
2023/07/25 02:14:34;;;;;;;3.83;2.55;;;13.40;99.90;;;;;;6232892;23;20442;-78
2023/07/25 02:17:00;;;;;;;4.00;2.50;;;13.30;99.90;;;;;;6205250;23;20340;-77
2023/07/25 02:19:25;;;;;;;5.30;2.40;;;13.30;99.90;;;;;;6232584;23;20019;-77
2023/07/25 02:21:51;;;;;;;5.40;2.35;;;13.20;99.90;;;;;;6233231;23;20004;-77
2023/07/25 02:24:16;;;;;;;4.53;2.60;;;13.20;99.90;;;;;;6232694;23;20040;-77
2023/07/25 02:26:42;;;;;;;8.30;2.25;;;13.20;99.90;;;;;;6232483;23;20273;-77
2023/07/25 02:29:08;;;;;;;4.82;2.50;;;13.20;99.90;;;;;;6232878;23;20015;-77
2023/07/25 02:31:33;;;;;;;4.32;2.55;;;13.30;99.90;;;;;;6205911;23;20023;-77
2023/07/25 02:33:59;;;;;;;4.35;2.40;;;13.30;99.90;;;;;;6233908;23;20004;-77
2023/07/25 02:36:24;;;;;;;4.07;2.40;;;13.40;99.90;;;;;;6232710;23;20004;-77
2023/07/25 02:38:50;;;;;;;4.82;2.53;;;13.40;99.90;;;;;;6233196;23;20008;-78
2023/07/25 02:41:16;;;;;;;3.85;2.20;;;13.40;99.90;;;;;;6233835;23;20008;-77
2023/07/25 02:43:41;;;;;;;3.38;2.35;;;13.50;99.90;;;;;;6232974;23;20028;-77
2023/07/25 02:46:07;;;;;;;4.97;2.10;;;13.50;99.90;;;;;;6232201;23;20115;-77
2023/07/25 02:48:33;;;;;;;6.78;2.47;;;13.60;99.90;;;;;;6234556;23;20000;-78
2023/07/25 02:50:58;;;;;;;4.22;2.35;;;13.60;99.90;;;;;;6233899;23;20403;-78
2023/07/25 02:53:24;;;;;;;3.33;1.98;;;13.60;99.90;;;;;;6206887;23;20015;-77
2023/07/25 02:55:50;;;;;;;4.18;2.30;;;13.60;99.90;;;;;;6233322;23;20003;-77
2023/07/25 02:58:16;;;;;;;4.28;2.30;;;13.70;99.90;;;;;;6233324;23;20232;-78
2023/07/25 03:00:41;;;;;;;4.13;2.45;;;13.70;99.90;;;;;;6234312;23;20004;-77
2023/07/25 03:03:07;;;;;;;2.97;2.17;;;13.60;99.90;;;;;;6231787;23;20008;-77
2023/07/25 03:05:33;;;;;;;4.18;2.58;;;13.60;99.90;;;;;;6235544;23;20020;-77
2023/07/25 03:07:58;;;;;;;7.55;2.28;;;13.50;99.90;;;;;;6234411;23;20534;-76
2023/07/25 03:10:24;;;;;;;4.78;2.50;;;13.50;99.90;;;;;;6235370;23;20008;-77
2023/07/25 03:12:51;;;;;;;2.75;2.20;;;13.40;99.90;;;;;;6235350;23;20000;-77
2023/07/25 03:15:17;;;;;;;5.45;2.30;;;13.30;99.90;;;;;;6235160;23;20015;-77
2023/07/25 03:17:42;;;;;;;4.22;2.42;;;13.20;99.90;;;;;;6235820;23;20653;-78
2023/07/25 03:20:08;;;;;;;6.00;2.45;;;13.10;99.90;;;;;;6207838;23;20012;-77
2023/07/25 03:22:34;;;;;;;2.50;2.30;;;13.00;99.90;;;;;;6234779;23;20008;-78
2023/07/25 03:24:59;;;;;;;4.38;2.40;;;13.00;99.90;;;;;;6234790;23;20012;-77
2023/07/25 03:27:25;;;;;;;4.75;2.33;;;12.90;99.90;;;;;;6235813;23;20012;-77
2023/07/25 03:29:50;;;;;;;5.65;2.50;;;12.90;99.90;;;;;;6208334;23;20019;-76
2023/07/25 03:32:16;;;;;;;3.25;2.03;;;12.80;99.90;;;;;;6237099;23;20003;-77
2023/07/25 03:34:42;;;;;;;5.85;2.28;;;12.80;99.90;;;;;;6234800;23;20004;-77
2023/07/25 03:37:07;;;;;;;3.55;2.50;;;12.80;99.90;;;;;;6235631;23;20053;-77
2023/07/25 03:39:34;;;;;;;2.92;2.28;;;12.80;99.90;;;;;;6235951;23;20031;-77
2023/07/25 03:41:59;;;;;;;3.40;2.08;;;12.80;99.90;;;;;;6235054;23;20027;-77
2023/07/25 03:44:25;;;;;;;4.78;2.35;;;12.70;99.90;;;;;;6235299;23;20008;-77
2023/07/25 03:46:50;;;;;;;5.40;2.38;;;12.80;99.90;;;;;;6235134;23;20035;-78
2023/07/25 03:49:16;;;;;;;7.43;2.50;;;12.70;99.90;;;;;;6235243;23;20020;-77
2023/07/25 03:51:42;;;;;;;4.40;2.58;;;12.70;99.90;;;;;;6234959;23;20008;-77
2023/07/25 03:54:07;;;;;;;5.20;2.42;;;12.70;99.90;;;;;;6234713;23;20435;-77
2023/07/25 03:56:33;;;;;;;4.57;2.75;;;12.70;99.90;;;;;;6235326;23;20008;-77
2023/07/25 03:58:59;;;;;;;5.03;3.10;;;12.70;99.90;;;;;;6234744;23;20034;-77
2023/07/25 04:01:26;;;;;;;3.55;2.55;;;12.80;99.90;;;;;;6234386;23;20008;-77
2023/07/25 04:03:51;;;;;;;6.68;2.85;;;12.80;99.90;;;;;;6208169;23;20292;-77
2023/07/25 04:06:20;;;;;;;4.93;2.83;;;12.80;99.90;;;;;;6234378;23;20091;-77
2023/07/25 04:08:46;;;;;;;6.32;3.13;;;12.80;99.90;;;;;;6233822;23;20079;-77
2023/07/25 04:11:13;;;;;;;7.85;2.53;;;12.80;99.90;;;;;;6207632;23;20040;-76
2023/07/25 04:13:39;;;;;;;3.38;2.50;;;12.80;99.90;;;;;;6233362;23;20036;-78
2023/07/25 04:16:05;;;;;;;6.85;2.78;;;12.70;99.90;;;;;;6233730;23;20451;-78
2023/07/25 04:18:30;;;;;;;4.63;2.78;;;12.70;99.90;;;;;;6207379;23;20091;-78
2023/07/25 04:20:56;;;;;;;7.68;3.25;;;12.70;99.90;;;;;;6232439;23;20421;-77
2023/07/25 04:23:22;;;;;;;6.30;2.85;;;12.80;99.90;;;;;;6233646;23;20125;-78
2023/07/25 04:25:48;;;;;;;5.55;2.72;;;12.80;99.90;;;;;;6233210;23;20138;-78
2023/07/25 04:28:14;;;;;;;3.22;2.65;;;12.80;99.90;;;;;;6233623;23;20019;-77
2023/07/25 04:30:40;;;;;;;6.53;2.75;;;12.80;99.90;;;;;;6234209;23;20015;-77
2023/07/25 04:33:05;;;;;;;8.10;2.80;;;12.80;99.90;;;;;;6234023;23;20030;-78
2023/07/25 04:35:31;;;;;;;6.18;2.85;;;12.90;99.90;;;;;;6234094;23;20008;-78
2023/07/25 04:37:57;;;;;;;3.33;2.65;;;12.90;99.90;;;;;;6233369;23;20008;-78
2023/07/25 04:40:22;;;;;;;4.75;2.88;;;12.90;99.90;;;;;;6233756;23;20379;-77
2023/07/25 04:42:48;;;;;;;6.18;2.97;;;13.00;99.90;;;;;;6233662;23;20580;-78
2023/07/25 04:45:13;;;;;;;4.63;3.00;;;13.00;99.90;;;;;;6234073;23;20095;-77
2023/07/25 04:47:39;;;;;;;4.82;3.40;;;13.00;99.90;;;;;;6233719;23;20079;-77
2023/07/25 04:50:05;;;;;;;6.15;3.17;;;13.10;99.90;;;;;;6233464;23;20039;-78
2023/07/25 04:52:31;;;;;;;6.63;3.08;;;13.20;99.90;;;;;;6207560;23;20012;-78
2023/07/25 04:54:57;;;;;;;4.85;2.90;;;13.20;99.90;;;;;;6207382;23;20557;-78
2023/07/25 04:57:23;;;;;;;4.45;3.03;;;13.30;99.90;;;;;;6207358;23;20155;-78
2023/07/25 04:59:49;;;;;;;5.53;2.92;;;13.30;99.90;;;;;;6234851;23;20004;-78
2023/07/25 05:02:15;;;;;;;4.80;2.72;;;13.30;99.90;;;;;;6234513;23;20007;-78
2023/07/25 05:04:40;;;;;;;6.70;3.55;;;13.20;99.90;;;;;;6234187;23;20023;-78
2023/07/25 05:07:06;;;;;;;2.80;2.60;;;13.20;99.90;;;;;;6233857;23;20139;-77
2023/07/25 05:09:31;;;;;;;6.57;3.17;;;13.20;99.90;;;;;;6234459;23;20012;-78
2023/07/25 05:11:57;;;;;;;5.85;3.40;;;13.20;99.90;;;;;;6234591;23;20004;-79
2023/07/25 05:14:23;;;;;;;5.40;2.90;;;13.20;99.90;;;;;;6233780;23;20031;-77
2023/07/25 05:16:48;;;;;;;5.95;3.08;;;13.20;99.90;;;;;;6234942;23;20071;-77
2023/07/25 05:19:14;;;;;;;3.80;3.00;;;13.30;99.90;;;;;;6235079;23;20432;-78
2023/07/25 05:21:39;;;;;;;6.70;3.58;;;13.50;99.90;;;;;;6207745;23;20070;-77
2023/07/25 05:24:05;;;;;;;5.63;3.17;;;13.60;99.90;;;;;;6208206;23;20012;-78
2023/07/25 05:26:31;;;;;;;5.32;3.30;;;13.70;99.90;;;;;;6234684;23;20026;-78
2023/07/25 05:28:57;;;;;;;5.40;3.03;;;13.80;99.90;;;;;;6207153;23;20012;-78
2023/07/25 05:31:22;;;;;;;8.25;3.13;;;13.80;99.90;;;;;;6235153;23;20110;-78
2023/07/25 05:33:48;;;;;;;4.50;2.85;;;13.90;99.90;;;;;;6235146;23;20032;-77
2023/07/25 05:36:13;;;;;;;6.45;3.00;;;14.00;99.90;;;;;;6234248;23;20427;-78
2023/07/25 05:38:39;;;;;;;3.45;2.90;;;14.10;99.90;;;;;;6234708;23;20078;-77
2023/07/25 05:41:04;;;;;;;4.25;2.95;;;14.20;99.90;;;;;;6234463;23;20004;-78
2023/07/25 05:43:30;;;;;;;4.63;2.78;;;14.40;99.90;;;;;;6207928;23;20012;-77
2023/07/25 05:45:55;;;;;;;5.07;3.15;;;14.40;99.90;;;;;;6234642;23;20455;-77
2023/07/25 05:48:21;;;;;;;5.05;3.55;;;14.50;99.90;;;;;;6207565;23;20062;-77
2023/07/25 05:50:51;;;;;;;5.57;3.15;;;14.50;99.90;;;;;;6235016;23;20012;-77
2023/07/25 05:53:17;;;;;;;5.47;3.20;;;14.60;99.90;;;;;;6234449;23;19996;-78
2023/07/25 05:55:46;;;;;;;4.53;3.08;;;14.80;99.90;;;;;;6234524;23;20011;-77
2023/07/25 05:58:15;;;;;;;4.60;2.97;;;14.90;99.90;;;;;;6234621;23;19997;-77
2023/07/25 06:00:42;;;;;;;8.50;2.95;;;15.20;99.90;;;;;;6207158;23;20016;-77
2023/07/25 06:03:13;;;;;;;3.95;2.88;;;15.50;99.90;;;;;;6233850;23;20008;-78
2023/07/25 06:05:39;;;;;;;5.93;3.03;;;15.80;99.90;;;;;;6207487;23;20028;-78
2023/07/25 06:08:05;;;;;;;55.17;36.28;;;16.00;99.90;;;;;;6234799;23;20312;-78
2023/07/25 06:10:31;;;;;;;8.80;6.45;;;16.20;99.90;;;;;;6233725;23;20011;-78
2023/07/25 06:12:57;;;;;;;7.50;3.78;;;16.20;99.90;;;;;;6234580;23;20004;-78
2023/07/25 06:15:22;;;;;;;4.93;2.85;;;16.20;99.90;;;;;;6234345;23;20387;-78
2023/07/25 06:17:48;;;;;;;4.47;3.10;;;16.20;99.90;;;;;;6233332;23;20011;-78
2023/07/25 06:20:14;;;;;;;4.93;2.90;;;16.20;99.90;;;;;;6232794;23;20530;-78
2023/07/25 06:22:39;;;;;;;5.30;3.03;;;16.20;99.90;;;;;;6230282;23;20320;-78
2023/07/25 06:25:07;;;;;;;9.52;3.45;;;16.30;99.90;;;;;;6202852;23;20016;-78
2023/07/25 06:27:33;;;;;;;9.20;5.55;;;16.30;99.90;;;;;;6228887;23;20004;-78
2023/07/25 06:30:00;;;;;;;7.82;4.78;;;16.30;99.90;;;;;;6230758;23;20458;-78
2023/07/25 06:32:26;;;;;;;6.15;3.70;;;16.40;99.90;;;;;;6232022;23;20004;-78
2023/07/25 06:34:51;;;;;;;5.72;3.08;;;16.40;99.90;;;;;;6205328;23;20016;-77
2023/07/25 06:37:17;;;;;;;4.55;2.90;;;16.50;99.90;;;;;;6233194;23;20004;-77
2023/07/25 06:39:43;;;;;;;4.93;3.30;;;16.50;99.90;;;;;;6233611;23;20008;-77
2023/07/25 06:42:09;;;;;;;7.00;3.15;;;16.60;99.90;;;;;;6235654;23;20089;-78
2023/07/25 06:44:34;;;;;;;8.40;3.30;;;16.70;99.90;;;;;;6237649;23;20015;-77
2023/07/25 06:47:00;;;;;;;8.10;3.47;;;16.80;99.90;;;;;;6237948;23;20008;-78
2023/07/25 06:49:25;;;;;;;5.57;3.00;;;16.90;99.90;;;;;;6241768;23;20098;-77
2023/07/25 06:51:51;;;;;;;5.75;3.33;;;16.90;99.90;;;;;;6210332;23;20019;-77
2023/07/25 06:54:16;;;;;;;5.40;2.97;;;16.90;99.90;;;;;;6236044;23;20067;-77
2023/07/25 06:56:42;;;;;;;11.02;5.32;;;17.10;99.90;;;;;;6233675;23;20015;-78
2023/07/25 06:59:07;;;;;;;12.13;5.50;;;17.40;99.90;;;;;;6232875;23;20000;-77
2023/07/25 07:01:33;;;;;;;7.22;3.72;;;17.80;99.90;;;;;;6232320;23;20396;-77
2023/07/25 07:03:59;;;;;;;6.43;2.90;;;18.20;99.90;;;;;;6204369;23;20379;-78
2023/07/25 07:06:25;;;;;;;8.57;3.20;;;18.40;99.90;;;;;;6203689;23;20046;-77
2023/07/25 07:08:50;;;;;;;9.93;3.00;;;18.40;99.90;;;;;;6205310;23;20088;-78
2023/07/25 07:11:17;;;;;;;6.75;2.50;;;18.50;99.90;;;;;;6204300;23;20016;-78
2023/07/25 07:13:42;;;;;;;5.57;2.90;;;18.60;99.90;;;;;;6203625;23;20110;-78
2023/07/25 07:16:09;;;;;;;6.82;3.08;;;18.70;99.90;;;;;;6232246;23;20012;-78
2023/07/25 07:18:35;;;;;;;5.05;2.58;;;18.70;99.90;;;;;;6232146;23;20059;-78
2023/07/25 07:21:00;;;;;;;6.57;2.78;;;18.90;99.90;;;;;;6233129;23;20007;-78
2023/07/25 07:23:26;;;;;;;7.53;2.67;;;19.10;99.90;;;;;;6205800;23;20103;-79
2023/07/25 07:25:51;;;;;;;10.00;2.70;;;19.50;99.90;;;;;;6232680;23;20043;-78
2023/07/25 07:28:17;;;;;;;4.57;2.28;;;19.90;99.90;;;;;;6206225;23;20000;-79
2023/07/25 07:30:49;;;;;;;5.93;2.25;;;20.30;99.90;;;;;;6234602;23;20020;-79
2023/07/25 07:33:14;;;;;;;4.60;1.80;;;20.40;99.90;;;;;;6230559;23;20008;-78
2023/07/25 07:35:40;;;;;;;4.28;1.83;;;20.60;99.90;;;;;;6227784;23;20397;-78
2023/07/25 07:38:05;;;;;;;4.60;2.10;;;20.60;99.90;;;;;;6224107;23;20008;-79
2023/07/25 07:40:32;;;;;;;6.32;2.22;;;20.70;99.90;;;;;;6199307;23;20008;-78
2023/07/25 07:42:57;;;;;;;5.47;1.90;;;21.00;99.90;;;;;;6226079;23;20332;-79
2023/07/25 07:45:24;;;;;;;9.13;2.05;;;21.30;99.90;;;;;;6200610;23;20020;-79
2023/07/25 07:47:50;;;;;;;4.43;1.48;;;21.40;99.90;;;;;;6202883;23;20466;-80
2023/07/25 07:50:18;;;;;;;6.82;2.08;;;21.70;99.90;;;;;;6233118;23;20019;-79
2023/07/25 07:52:43;;;;;;;3.85;1.65;;;22.30;99.90;;;;;;6206651;23;20095;-80
2023/07/25 07:55:13;;;;;;;5.93;1.80;;;23.20;99.90;;;;;;6206928;23;20039;-80
2023/07/25 07:57:40;;;;;;;3.15;1.25;;;25.00;99.90;;;;;;6234797;23;20065;-80
2023/07/25 08:00:07;;;;;;;5.63;1.40;;;27.60;96.30;;;;;;6207884;23;20446;-80
2023/07/25 08:02:32;;;;;;;2.92;1.23;;;29.70;83.00;;;;;;6235692;23;20007;-81
2023/07/25 08:04:58;;;;;;;5.63;1.60;;;30.50;72.50;;;;;;6209357;23;20020;-80
2023/07/25 08:07:23;;;;;;;4.97;1.20;;;32.10;66.60;;;;;;6208788;23;20004;-80
2023/07/25 08:09:56;;;;;;;3.72;1.30;;;32.90;60.00;;;;;;6209034;23;20095;-81
2023/07/25 08:12:22;;;;;;;4.38;1.35;;;33.30;57.90;;;;;;6235881;23;20677;-80
2023/07/25 08:14:47;;;;;;;2.95;1.30;;;34.10;54.50;;;;;;6234743;23;20035;-81
2023/07/25 08:17:14;;;;;;;3.08;1.00;;;35.60;51.40;;;;;;6206205;23;20143;-81
2023/07/25 08:19:40;;;;;;;4.88;1.17;;;36.80;47.00;;;;;;6206255;23;20069;-81
2023/07/25 08:22:05;;;;;;;4.93;1.00;;;36.80;45.60;;;;;;6205791;23;20031;-81
2023/07/25 08:24:34;;;;;;;3.30;1.00;;;36.10;44.90;;;;;;6232929;23;20644;-81
2023/07/25 08:26:59;;;;;;;2.80;0.90;;;34.60;44.00;;;;;;6231903;23;20004;-79
2023/07/25 08:29:28;;;;;;;3.63;1.00;;;32.60;48.40;;;;;;6231370;23;20000;-79
2023/07/25 08:31:53;;;;;;;4.75;1.00;;;32.50;52.30;;;;;;6231231;23;20015;-80
2023/07/25 08:34:20;;;;;;;4.25;0.98;;;33.60;48.80;;;;;;6229064;23;20007;-80
2023/07/25 08:36:46;;;;;;;3.53;0.93;;;33.40;47.60;;;;;;6231107;23;20495;-80
2023/07/25 08:39:11;;;;;;;4.78;1.05;;;32.50;49.80;;;;;;6229663;23;20000;-80
2023/07/25 08:41:43;;;;;;;5.10;1.05;;;31.20;50.40;;;;;;6229180;23;20073;-79
2023/07/25 08:44:12;;;;;;;3.22;0.80;;;29.90;53.70;;;;;;6228012;23;20008;-80
2023/07/25 08:46:44;;;;;;;4.20;1.23;;;28.60;56.70;;;;;;6204206;23;20016;-81
2023/07/25 08:49:14;;;;;;;5.88;0.95;;;28.20;57.60;;;;;;6232625;23;20000;-80
2023/07/25 08:51:42;;;;;;;4.80;1.20;;;28.90;61.30;;;;;;6234727;23;20407;-82
2023/07/25 08:54:13;;;;;;;3.95;0.90;;;30.80;58.20;;;;;;6234675;23;20458;-79
2023/07/25 08:56:39;;;;;;;3.58;1.00;;;32.90;51.90;;;;;;6234514;23;20036;-81
2023/07/25 08:59:06;;;;;;;2.17;0.70;;;32.80;50.20;;;;;;6235594;23;20049;-81
2023/07/25 09:01:32;;;;;;;2.90;0.98;;;33.80;50.90;;;;;;6204299;23;20019;-80
2023/07/25 09:04:00;;;;;;;2.03;0.90;;;35.50;46.40;;;;;;6232587;23;20292;-82
2023/07/25 09:06:26;;;;;;;4.90;1.00;;;37.20;46.20;;;;;;6231650;23;20328;-80
2023/07/25 09:08:52;;;;;;;3.92;1.00;;;38.60;40.20;;;;;;6205106;23;20005;-78
2023/07/25 09:11:20;;;;;;;3.85;0.95;;;39.80;39.80;;;;;;6234012;23;20034;-81
2023/07/25 09:13:48;;;;;;;4.13;0.98;;;38.90;36.00;;;;;;6205843;23;20020;-79
2023/07/25 09:16:14;;;;;;;3.60;1.00;;;36.30;39.60;;;;;;6205199;23;20015;-81
2023/07/25 09:18:40;;;;;;;3.75;0.90;;;35.80;43.30;;;;;;6232933;23;20594;-81
2023/07/25 09:21:06;;;;;;;4.18;0.80;;;36.70;42.50;;;;;;6206245;23;20047;-80
2023/07/25 09:23:32;;;;;;;2.95;0.70;;;37.30;40.30;;;;;;6233418;23;20011;-80
2023/07/25 09:26:06;;;;;;;1.90;0.65;;;36.10;39.00;;;;;;6207136;23;20020;-81
2023/07/25 09:28:32;;;;;;;3.53;0.88;;;34.00;41.70;;;;;;6205770;23;20091;-80
2023/07/25 09:31:04;;;;;;;2.45;0.90;;;31.90;45.80;;;;;;6230931;23;20012;-80
2023/07/25 09:33:30;;;;;;;5.20;1.02;;;30.50;49.90;;;;;;6204844;23;20008;-80
2023/07/25 09:35:57;;;;;;;3.67;1.00;;;29.30;51.70;;;;;;6230572;23;20000;-81
2023/07/25 09:38:23;;;;;;;2.88;0.90;;;28.30;54.50;;;;;;6230954;23;20062;-80
2023/07/25 09:40:49;;;;;;;6.18;0.88;;;29.00;55.80;;;;;;6229655;23;20012;-80
2023/07/25 09:43:26;;;;;;;3.40;0.90;;;30.90;53.30;;;;;;6232142;23;20309;-80
2023/07/25 09:45:52;;;;;;;2.95;1.00;;;32.70;49.20;;;;;;6230544;23;20012;-81
2023/07/25 09:48:19;;;;;;;5.05;0.90;;;32.30;47.30;;;;;;6232355;23;20011;-80
2023/07/25 09:50:45;;;;;;;3.53;0.95;;;30.80;49.30;;;;;;6233216;23;20015;-81
2023/07/25 09:53:17;;;;;;;5.53;0.90;;;29.20;50.30;;;;;;6234569;23;20411;-81
2023/07/25 09:55:44;;;;;;;3.45;1.10;;;27.60;54.00;;;;;;6207917;23;20023;-81
2023/07/25 09:58:11;;;;;;;4.00;1.10;;;25.90;59.40;;;;;;6207949;23;20000;-80
2023/07/25 10:00:37;;;;;;;2.60;1.20;;;25.00;67.90;;;;;;6208135;23;20011;-80
2023/07/25 10:03:04;;;;;;;3.58;1.00;;;24.30;82.80;;;;;;6232814;23;20087;-79
2023/07/25 10:05:29;;;;;;;4.60;1.10;;;23.80;90.00;;;;;;6234857;23;20068;-80
2023/07/25 10:07:56;;;;;;;4.40;1.38;;;23.30;96.40;;;;;;6204874;23;20031;-80
2023/07/25 10:10:22;;;;;;;4.28;1.00;;;23.20;98.80;;;;;;6234014;23;20004;-81
2023/07/25 10:12:48;;;;;;;5.15;1.30;;;23.50;98.90;;;;;;6230953;23;20381;-79
2023/07/25 10:15:14;;;;;;;2.42;1.17;;;24.20;98.60;;;;;;6232929;23;20147;-81
2023/07/25 10:17:40;;;;;;;3.67;1.33;;;25.30;96.20;;;;;;6236049;23;19996;-81
2023/07/25 10:20:06;;;;;;;3.38;0.88;;;27.50;92.00;;;;;;6235299;23;20031;-82
2023/07/25 10:22:37;;;;;;;2.58;0.98;;;30.70;70.30;;;;;;6236632;23;20004;-81
2023/07/25 10:25:11;;;;;;;2.70;1.00;;;34.10;57.70;;;;;;6237263;23;20016;-81
2023/07/25 10:27:37;;;;;;;3.85;1.05;;;35.00;46.50;;;;;;6235963;23;20008;-82
2023/07/25 10:30:21;;;;;;;3.40;1.13;;;36.80;44.80;;;;;;6233333;23;20116;-82
2023/07/25 10:32:51;;;;;;;3.13;0.82;;;39.30;41.60;;;;;;6206869;23;20012;-81
2023/07/25 10:35:53;;;;;;;4.13;0.98;;;40.20;40.10;;;;;;6233336;23;20004;-81
2023/07/25 10:38:36;;;;;;;3.85;1.00;;;42.20;37.70;;;;;;6234447;23;20008;-82
2023/07/25 10:41:11;;;;;;;2.88;0.70;;;42.30;33.10;;;;;;6234123;23;20091;-82
2023/07/25 10:43:46;;;;;;;2.72;0.80;;;39.90;33.50;;;;;;6234215;23;20035;-82
2023/07/25 10:46:14;;;;;;;2.78;0.80;;;36.00;37.00;;;;;;6235278;23;20024;-83
2023/07/25 10:48:48;;;;;;;1.52;0.85;;;32.30;42.80;;;;;;6231799;23;20008;-80
2023/07/25 10:51:16;;;;;;;2.30;1.17;;;29.80;47.10;;;;;;6231661;23;20008;-84
2023/07/25 10:54:16;;;;;;;4.38;1.42;;;27.80;49.00;;;;;;6225995;23;20011;-83
2023/07/25 10:57:17;;;;;;;1.55;1.17;;;26.20;54.70;;;;;;6193244;23;20019;-83
2023/07/25 11:00:00;;;;;;;6.73;1.43;;;24.80;60.30;;;;;;6231586;23;20023;-83
2023/07/25 11:02:33;;;;;;;1.77;1.13;;;23.70;69.90;;;;;;6232997;23;20317;-82
2023/07/25 11:05:28;;;;;;;5.40;1.63;;;22.90;87.90;;;;;;6230992;23;20626;-83
2023/07/25 11:07:55;;;;;;;5.22;1.42;;;22.10;94.20;;;;;;6205670;23;20023;-85
2023/07/25 11:10:28;;;;;;;4.28;1.20;;;21.80;92.90;;;;;;6234064;23;20035;-83
2023/07/25 11:13:00;;;;;;;2.80;1.10;;;21.60;95.00;;;;;;6207129;23;20004;-85
2023/07/25 11:15:27;;;;;;;2.78;1.30;;;21.90;96.00;;;;;;6207596;23;20580;-84
2023/07/25 11:17:53;;;;;;;2.75;1.23;;;22.20;94.80;;;;;;6234712;23;20000;-84
2023/07/25 11:20:24;;;;;;;3.65;1.30;;;23.00;93.80;;;;;;6235382;23;20018;-82
2023/07/25 11:22:50;;;;;;;4.38;1.58;;;23.80;85.50;;;;;;6233977;23;20435;-85
2023/07/25 11:25:17;;;;;;;2.47;1.17;;;25.10;79.70;;;;;;6208620;23;20026;-83
2023/07/25 11:27:43;;;;;;;4.00;1.10;;;27.60;72.00;;;;;;6210738;23;20004;-84
2023/07/25 11:30:11;;;;;;;2.17;1.10;;;29.30;61.80;;;;;;6236273;23;20011;-83
2023/07/25 11:32:37;;;;;;;2.50;1.23;;;30.20;56.30;;;;;;6208040;23;20012;-87
2023/07/25 11:35:02;;;;;;;3.65;1.10;;;29.90;55.10;;;;;;6235211;23;20335;-85
2023/07/25 11:37:28;;;;;;;4.40;1.20;;;28.40;51.80;;;;;;6207308;23;20001;-82
2023/07/25 11:39:54;;;;;;;4.60;1.33;;;27.30;57.60;;;;;;6234917;23;20004;-85
2023/07/25 11:42:20;;;;;;;3.75;1.30;;;26.50;61.80;;;;;;6208021;23;20047;-84
2023/07/25 11:44:46;;;;;;;3.85;1.33;;;25.40;63.10;;;;;;6207292;23;20039;-85
2023/07/25 11:47:11;;;;;;;3.60;1.20;;;25.10;70.40;;;;;;6234749;23;20015;-85
2023/07/25 11:49:37;;;;;;;3.42;1.40;;;25.00;70.20;;;;;;6232668;23;20000;-86
2023/07/25 11:52:04;;;;;;;2.58;1.10;;;24.10;70.20;;;;;;6233454;23;20412;-84
2023/07/25 11:54:31;;;;;;;4.78;1.73;;;23.60;75.00;;;;;;6205620;23;20490;-84
2023/07/25 11:56:57;;;;;;;2.78;1.40;;;23.00;82.90;;;;;;6232358;23;20014;-85
2023/07/25 11:59:22;;;;;;;2.67;1.10;;;22.30;91.10;;;;;;6235117;23;20004;-85
2023/07/25 12:01:48;;;;;;;2.35;1.10;;;22.20;94.90;;;;;;6207705;23;20099;-85
2023/07/25 12:04:15;;;;;;;5.95;1.42;;;22.20;97.40;;;;;;6206849;23;20020;-81
2023/07/25 12:06:41;;;;;;;2.13;1.00;;;22.40;97.90;;;;;;6229981;23;20043;-81
2023/07/25 12:09:07;;;;;;;3.80;1.20;;;22.80;95.60;;;;;;6234565;23;20078;-83
2023/07/25 12:11:43;;;;;;;5.47;1.30;;;23.30;94.50;;;;;;6206383;23;20428;-85
2023/07/25 12:14:12;;;;;;;2.20;1.20;;;24.40;84.10;;;;;;6232685;23;20004;-83
2023/07/25 12:16:42;;;;;;;1.58;1.08;;;25.90;84.20;;;;;;6232826;23;20027;-83
2023/07/25 12:19:09;;;;;;;2.10;1.00;;;27.20;61.20;;;;;;6232247;23;20020;-86
2023/07/25 12:21:37;;;;;;;3.15;1.42;;;28.10;59.20;;;;;;6206238;23;20004;-84
2023/07/25 12:24:08;;;;;;;3.33;1.27;;;28.30;56.50;;;;;;6204288;23;20024;-84
2023/07/25 12:26:44;;;;;;;3.90;1.55;;;28.80;56.40;;;;;;6234288;23;20012;-82
2023/07/25 12:29:26;;;;;;;7.05;1.38;;;29.20;55.00;;;;;;6232362;23;20008;-83
2023/07/25 12:31:53;;;;;;;2.40;1.60;;;29.50;53.60;;;;;;6232074;23;20015;-82
2023/07/25 12:34:20;;;;;;;2.45;1.48;;;28.70;51.80;;;;;;6232264;23;20075;-82
2023/07/25 12:36:50;;;;;;;4.75;2.00;;;28.10;50.10;;;;;;6200737;23;20016;-84
2023/07/25 12:39:16;;;;;;;1.63;1.30;;;27.20;50.50;;;;;;6200852;23;20062;-83
2023/07/25 12:41:43;;;;;;;3.28;1.55;;;26.60;52.20;;;;;;6201298;23;20087;-80
2023/07/25 12:44:09;;;;;;;1.80;1.42;;;26.10;53.30;;;;;;6200216;23;20008;-86